createdAt,value
2024-01-17T00:00:57.949Z,14.46
2024-01-17T00:03:25.612Z,14.47
2024-01-17T00:05:53.311Z,14.46
2024-01-17T00:08:20.966Z,14.45
2024-01-17T00:10:48.610Z,14.45
2024-01-17T00:13:15.995Z,14.44
2024-01-17T00:15:44.988Z,14.44
2024-01-17T00:18:12.718Z,14.42
2024-01-17T00:20:40.492Z,14.42
2024-01-17T00:23:08.227Z,14.57
2024-01-17T00:25:35.907Z,14.59
2024-01-17T00:28:03.698Z,14.62
2024-01-17T00:30:31.404Z,14.60
2024-01-17T00:33:00.667Z,14.60
2024-01-17T00:35:28.538Z,14.57
2024-01-17T00:37:56.872Z,14.55
2024-01-17T00:40:25.990Z,14.52
2024-01-17T00:42:53.661Z,14.48
2024-01-17T00:45:21.293Z,14.45
2024-01-17T00:47:49.059Z,14.40
2024-01-17T00:50:19.666Z,14.38
2024-01-17T00:52:47.400Z,14.36
2024-01-17T00:55:15.098Z,14.34
2024-01-17T00:57:42.800Z,14.31
2024-01-17T01:00:11.359Z,14.30
2024-01-17T01:02:39.181Z,14.27
2024-01-17T01:05:07.876Z,14.25
2024-01-17T01:07:36.896Z,14.24
2024-01-17T01:10:04.971Z,14.21
2024-01-17T01:12:32.594Z,14.20
2024-01-17T01:15:00.495Z,14.19
2024-01-17T01:17:28.378Z,14.17
2024-01-17T01:19:56.298Z,14.16
2024-01-17T01:22:23.965Z,14.14
2024-01-17T01:24:53.101Z,14.13
2024-01-17T01:27:20.828Z,14.11
2024-01-17T01:29:48.540Z,14.12
2024-01-17T01:32:16.205Z,14.09
2024-01-17T01:34:43.928Z,14.08
2024-01-17T01:37:11.631Z,14.08
2024-01-17T01:39:39.340Z,14.07
2024-01-17T01:42:08.530Z,14.07
2024-01-17T01:44:36.230Z,14.06
2024-01-17T01:47:04.127Z,14.06
2024-01-17T01:49:32.563Z,14.04
2024-01-17T01:52:00.603Z,14.03
2024-01-17T01:54:28.964Z,14.02
2024-01-17T01:56:57.299Z,14.01
2024-01-17T01:59:26.433Z,14.01
2024-01-17T02:01:55.520Z,13.99
2024-01-17T02:04:23.766Z,13.99
2024-01-17T02:06:53.039Z,13.99
2024-01-17T02:09:21.313Z,13.98
2024-01-17T02:11:49.374Z,13.99
2024-01-17T02:14:18.465Z,13.97
2024-01-17T02:16:47.532Z,13.96
2024-01-17T02:19:17.604Z,13.96
2024-01-17T02:21:45.393Z,13.96
2024-01-17T02:24:17.291Z,13.95
2024-01-17T02:26:44.894Z,13.93
2024-01-17T02:29:12.816Z,13.93
2024-01-17T02:31:41.368Z,13.93
2024-01-17T02:34:09.172Z,13.92
2024-01-17T02:36:36.754Z,13.92
2024-01-17T02:39:04.372Z,13.91
2024-01-17T02:41:33.234Z,13.92
2024-01-17T02:44:00.740Z,13.90
2024-01-17T02:46:29.493Z,13.91
2024-01-17T02:48:57.157Z,13.90
2024-01-17T02:51:24.821Z,13.90
2024-01-17T02:53:52.351Z,13.89
2024-01-17T02:56:20.188Z,13.90
2024-01-17T02:58:49.085Z,13.89
2024-01-17T03:01:16.579Z,13.89
2024-01-17T03:03:44.093Z,13.88
2024-01-17T03:06:11.808Z,13.88
2024-01-17T03:08:39.534Z,13.87
2024-01-17T03:11:07.294Z,13.88
2024-01-17T03:13:34.925Z,13.87
2024-01-17T03:16:03.769Z,13.87
2024-01-17T03:18:31.352Z,13.87
2024-01-17T03:20:59.067Z,13.86
2024-01-17T03:23:26.736Z,13.87
2024-01-17T03:25:54.213Z,13.85
2024-01-17T03:28:21.722Z,13.86
2024-01-17T03:30:49.939Z,13.85
2024-01-17T03:33:18.901Z,13.84
2024-01-17T03:35:46.543Z,13.85
2024-01-17T03:38:14.070Z,13.85
2024-01-17T03:40:41.734Z,13.85
2024-01-17T03:43:09.253Z,13.85
2024-01-17T03:45:36.731Z,13.85
2024-01-17T03:48:05.896Z,13.85
2024-01-17T03:50:35.044Z,13.85
2024-01-17T03:53:02.536Z,13.84
2024-01-17T03:55:30.341Z,13.84
2024-01-17T03:57:57.837Z,13.84
2024-01-17T04:00:25.330Z,13.84
2024-01-17T04:02:52.887Z,13.85
2024-01-17T04:05:20.923Z,13.83
2024-01-17T04:07:50.328Z,13.84
2024-01-17T04:10:18.203Z,13.84
2024-01-17T04:12:46.005Z,13.83
2024-01-17T04:15:13.559Z,13.84
2024-01-17T04:17:41.230Z,13.83
2024-01-17T04:20:09.639Z,13.83
2024-01-17T04:22:37.137Z,13.83
2024-01-17T04:25:06.460Z,13.83
2024-01-17T04:27:33.971Z,13.83
2024-01-17T04:30:01.887Z,13.82
2024-01-17T04:32:29.753Z,13.83
2024-01-17T04:34:57.407Z,13.82
2024-01-17T04:37:24.854Z,13.82
2024-01-17T04:39:52.320Z,13.82
2024-01-17T04:42:21.290Z,13.82
2024-01-17T04:44:49.588Z,13.81
2024-01-17T04:47:17.150Z,13.80
2024-01-17T04:49:46.031Z,13.80
2024-01-17T04:52:17.192Z,13.81
2024-01-17T04:54:44.775Z,13.80
2024-01-17T04:57:12.288Z,13.80
2024-01-17T04:59:41.136Z,13.81
2024-01-17T05:02:08.973Z,13.79
2024-01-17T05:04:36.536Z,13.80
2024-01-17T05:07:04.164Z,13.80
2024-01-17T05:09:31.636Z,13.81
2024-01-17T05:11:59.451Z,13.80
2024-01-17T05:14:27.103Z,13.81
2024-01-17T05:16:56.055Z,13.81
2024-01-17T05:19:23.685Z,13.80
2024-01-17T05:21:51.234Z,13.80
2024-01-17T05:24:18.740Z,13.80
2024-01-17T05:26:47.404Z,13.80
2024-01-17T05:29:15.078Z,13.80
2024-01-17T05:31:42.596Z,13.81
2024-01-17T05:34:12.087Z,13.81
2024-01-17T05:36:39.902Z,13.81
2024-01-17T05:39:07.911Z,13.81
2024-01-17T05:41:35.547Z,13.80
2024-01-17T05:44:03.030Z,13.80
2024-01-17T05:46:30.548Z,13.81
2024-01-17T05:48:58.151Z,13.80
2024-01-17T05:51:27.413Z,13.81
2024-01-17T05:53:54.913Z,13.80
2024-01-17T05:56:22.438Z,13.80
2024-01-17T05:58:50.372Z,13.80
2024-01-17T06:01:17.910Z,13.79
2024-01-17T06:03:45.509Z,13.80
2024-01-17T06:06:13.105Z,13.81
2024-01-17T06:08:44.780Z,13.80
2024-01-17T06:11:12.490Z,13.80
2024-01-17T06:13:39.949Z,13.80
2024-01-17T06:16:07.503Z,13.79
2024-01-17T06:18:35.078Z,13.79
2024-01-17T06:21:02.676Z,13.79
2024-01-17T06:23:30.930Z,13.78
2024-01-17T06:25:59.847Z,13.79
2024-01-17T06:28:27.461Z,13.79
2024-01-17T06:30:55.026Z,13.79
2024-01-17T06:33:22.685Z,13.79
2024-01-17T06:35:50.628Z,13.79
2024-01-17T06:38:18.112Z,13.79
2024-01-17T06:40:45.773Z,13.80
2024-01-17T06:43:14.604Z,13.79
2024-01-17T06:45:42.155Z,13.81
2024-01-17T06:48:09.945Z,13.80
2024-01-17T06:50:37.535Z,13.81
2024-01-17T06:53:05.310Z,13.81
2024-01-17T06:55:32.820Z,13.80
2024-01-17T06:58:00.326Z,13.81
2024-01-17T07:00:32.880Z,13.81
2024-01-17T07:03:01.930Z,13.81
2024-01-17T07:05:29.981Z,13.81
2024-01-17T07:07:57.619Z,13.82
2024-01-17T07:10:25.613Z,13.81
2024-01-17T07:12:53.101Z,13.81
2024-01-17T07:15:20.715Z,13.81
2024-01-17T07:17:49.765Z,13.82
2024-01-17T07:20:17.658Z,13.81
2024-01-17T07:22:45.829Z,13.81
2024-01-17T07:25:14.823Z,13.82
2024-01-17T07:27:44.372Z,13.81
2024-01-17T07:30:12.478Z,13.81
2024-01-17T07:32:40.666Z,13.81
2024-01-17T07:35:10.493Z,13.80
2024-01-17T07:37:38.055Z,13.81
2024-01-17T07:40:06.524Z,13.82
2024-01-17T07:42:34.118Z,13.81
2024-01-17T07:45:01.690Z,13.81
2024-01-17T07:47:29.280Z,13.81
2024-01-17T07:50:01.017Z,13.81
2024-01-17T07:52:30.523Z,13.81
2024-01-17T07:54:58.068Z,13.80
2024-01-17T07:57:25.765Z,13.82
2024-01-17T07:59:53.777Z,13.81
2024-01-17T08:02:21.321Z,13.81
2024-01-17T08:04:50.299Z,13.82
2024-01-17T08:07:17.943Z,13.82
2024-01-17T08:09:47.164Z,13.81
2024-01-17T08:12:14.825Z,13.83
2024-01-17T08:14:42.499Z,13.82
2024-01-17T08:17:10.018Z,13.83
2024-01-17T08:19:37.688Z,13.83
2024-01-17T08:22:06.133Z,13.83
2024-01-17T08:24:33.832Z,13.83
2024-01-17T08:27:02.729Z,13.83
2024-01-17T08:29:30.269Z,13.84
2024-01-17T08:31:57.808Z,13.84
2024-01-17T08:34:25.440Z,13.83
2024-01-17T08:36:55.564Z,13.83
2024-01-17T08:39:23.125Z,13.84
2024-01-17T08:41:50.774Z,13.84
2024-01-17T08:44:19.994Z,13.84
2024-01-17T08:46:48.064Z,13.83
2024-01-17T08:49:16.157Z,13.84
2024-01-17T08:51:44.036Z,13.84
2024-01-17T08:54:11.824Z,13.85
2024-01-17T08:56:39.694Z,13.84
2024-01-17T08:59:07.228Z,13.84
2024-01-17T09:01:36.060Z,13.83
2024-01-17T09:04:03.586Z,13.84
2024-01-17T09:06:31.141Z,13.83
2024-01-17T09:08:58.772Z,13.83
2024-01-17T09:11:26.418Z,13.83
2024-01-17T09:13:53.939Z,13.82
2024-01-17T09:16:21.402Z,13.83
2024-01-17T09:18:50.589Z,13.83
2024-01-17T09:21:18.375Z,13.84
2024-01-17T09:23:45.889Z,13.83
2024-01-17T09:26:13.525Z,13.83
2024-01-17T09:28:41.006Z,13.82
2024-01-17T09:31:09.356Z,13.83
2024-01-17T09:33:37.653Z,13.82
2024-01-17T09:36:07.977Z,13.82
2024-01-17T09:38:35.577Z,13.81
2024-01-17T09:41:03.324Z,13.83
2024-01-17T09:43:30.854Z,13.81
2024-01-17T09:46:01.149Z,13.82
2024-01-17T09:48:29.043Z,13.83
2024-01-17T09:50:58.389Z,13.82
2024-01-17T09:53:31.414Z,13.81
2024-01-17T09:56:00.433Z,13.81
2024-01-17T09:58:29.466Z,13.81
2024-01-17T10:00:57.749Z,13.81
2024-01-17T10:03:26.372Z,13.81
2024-01-17T10:05:55.913Z,13.82
2024-01-17T10:08:23.838Z,13.82
2024-01-17T10:10:53.134Z,13.82
2024-01-17T10:13:20.586Z,13.81
2024-01-17T10:15:48.164Z,13.81
2024-01-17T10:18:16.603Z,13.81
2024-01-17T10:20:44.479Z,13.81
2024-01-17T10:23:11.975Z,13.81
2024-01-17T10:25:40.037Z,13.81
2024-01-17T10:28:09.460Z,13.81
2024-01-17T10:30:38.474Z,13.81
2024-01-17T10:33:06.503Z,13.81
2024-01-17T10:35:34.281Z,13.81
2024-01-17T10:38:02.126Z,13.81
2024-01-17T10:40:30.296Z,13.82
2024-01-17T10:43:04.755Z,13.81
2024-01-17T10:45:37.109Z,13.81
2024-01-17T10:48:05.743Z,13.81
2024-01-17T10:50:33.379Z,13.81
2024-01-17T10:53:03.939Z,13.81
2024-01-17T10:55:31.768Z,13.81
2024-01-17T10:58:00.669Z,13.81
2024-01-17T11:00:32.513Z,13.81
2024-01-17T11:03:03.217Z,13.80
2024-01-17T11:05:32.174Z,13.81
2024-01-17T11:08:00.743Z,13.81
2024-01-17T11:10:29.315Z,13.81
2024-01-17T11:12:57.366Z,13.82
2024-01-17T11:15:27.854Z,13.81
2024-01-17T11:17:56.144Z,13.81
2024-01-17T11:20:28.965Z,13.81
2024-01-17T11:22:59.094Z,13.81
2024-01-17T11:25:29.971Z,13.81
2024-01-17T11:28:01.511Z,13.82
2024-01-17T11:30:34.916Z,13.81
2024-01-17T11:33:06.961Z,13.80
2024-01-17T11:35:46.917Z,13.80
2024-01-17T11:38:29.471Z,13.80
2024-01-17T11:40:57.808Z,13.81
2024-01-17T11:43:28.520Z,13.81
2024-01-17T11:45:56.260Z,13.82
2024-01-17T11:48:25.746Z,13.81
2024-01-17T11:51:00.132Z,13.82
2024-01-17T11:53:28.346Z,13.82
2024-01-17T11:55:57.167Z,13.81
2024-01-17T11:58:40.109Z,13.82
2024-01-17T12:01:07.851Z,13.82
2024-01-17T12:03:35.833Z,13.82
2024-01-17T12:06:04.982Z,13.82
2024-01-17T12:08:32.578Z,13.81
2024-01-17T12:11:00.158Z,13.82
2024-01-17T12:13:27.846Z,13.82
2024-01-17T12:15:56.319Z,13.82
2024-01-17T12:18:25.154Z,13.81
2024-01-17T12:20:53.261Z,13.81
2024-01-17T12:23:23.892Z,13.81
2024-01-17T12:25:51.464Z,13.82
2024-01-17T12:28:20.083Z,13.82
2024-01-17T12:30:57.950Z,13.80
2024-01-17T12:33:26.616Z,13.82
2024-01-17T12:35:54.692Z,13.82
2024-01-17T12:38:23.651Z,13.82
2024-01-17T12:40:51.280Z,13.82
2024-01-17T12:43:19.542Z,13.82
2024-01-17T12:45:47.708Z,13.83
2024-01-17T12:48:16.891Z,13.82
2024-01-17T12:50:46.340Z,13.83
2024-01-17T12:53:14.200Z,13.82
2024-01-17T12:55:43.349Z,13.83
2024-01-17T12:58:12.245Z,13.83
2024-01-17T13:00:40.876Z,13.83
2024-01-17T13:03:09.260Z,13.83
2024-01-17T13:05:38.272Z,13.84
2024-01-17T13:08:09.477Z,13.83
2024-01-17T13:10:37.273Z,13.83
2024-01-17T13:13:06.923Z,13.84
2024-01-17T13:15:35.262Z,13.84
2024-01-17T13:18:03.265Z,13.85
2024-01-17T13:20:31.581Z,13.85
2024-01-17T13:22:59.138Z,13.84
2024-01-17T13:25:26.722Z,13.84
2024-01-17T13:27:58.209Z,13.83
2024-01-17T13:30:27.337Z,13.83
2024-01-17T13:32:55.058Z,13.84
2024-01-17T13:35:22.662Z,13.84
2024-01-17T13:37:50.423Z,13.83
2024-01-17T13:40:19.550Z,13.83
2024-01-17T13:42:47.134Z,13.83
2024-01-17T13:45:14.898Z,13.83
2024-01-17T13:47:44.575Z,13.83
2024-01-17T13:50:22.014Z,13.83
2024-01-17T13:52:53.096Z,13.83
2024-01-17T13:55:21.129Z,13.82
2024-01-17T13:57:49.296Z,13.83
2024-01-17T14:00:17.863Z,13.83
2024-01-17T14:02:46.859Z,13.82
2024-01-17T14:05:14.593Z,13.83
2024-01-17T14:07:43.068Z,13.82
2024-01-17T14:10:11.625Z,13.81
2024-01-17T14:12:39.521Z,13.82
2024-01-17T14:15:09.343Z,13.82
2024-01-17T14:17:38.235Z,13.81
2024-01-17T14:20:14.430Z,13.82
2024-01-17T14:22:41.926Z,13.82
2024-01-17T14:25:12.091Z,13.81
2024-01-17T14:27:39.594Z,13.82
2024-01-17T14:30:08.755Z,13.82
2024-01-17T14:32:37.251Z,13.81
2024-01-17T14:35:05.182Z,13.83
2024-01-17T14:37:35.879Z,13.81
2024-01-17T14:40:03.370Z,13.81
2024-01-17T14:42:30.898Z,13.82
2024-01-17T14:44:58.604Z,13.82
2024-01-17T14:47:26.142Z,13.82
2024-01-17T14:49:53.709Z,13.81
2024-01-17T14:52:22.414Z,13.82
2024-01-17T14:54:51.237Z,13.80
2024-01-17T14:57:18.809Z,13.81
2024-01-17T14:59:46.360Z,13.81
2024-01-17T15:02:13.858Z,13.81
2024-01-17T15:04:41.807Z,13.81
2024-01-17T15:07:10.482Z,13.80
2024-01-17T15:09:38.057Z,13.81
2024-01-17T15:12:07.876Z,13.80
2024-01-17T15:14:35.490Z,13.81
2024-01-17T15:17:04.153Z,13.81
2024-01-17T15:19:31.819Z,13.82
2024-01-17T15:21:59.394Z,13.83
2024-01-17T15:24:27.217Z,13.83
2024-01-17T15:26:54.744Z,13.82
2024-01-17T15:29:23.657Z,13.83
2024-01-17T15:31:51.186Z,13.82
2024-01-17T15:34:19.007Z,13.83
2024-01-17T15:36:46.576Z,13.82
2024-01-17T15:39:20.070Z,13.82
2024-01-17T15:41:48.218Z,13.81
2024-01-17T15:44:15.781Z,13.83
2024-01-17T15:46:44.673Z,13.81
2024-01-17T15:49:12.564Z,13.81
2024-01-17T15:51:40.165Z,13.82
2024-01-17T15:54:07.894Z,13.83
2024-01-17T15:56:39.200Z,13.82
2024-01-17T15:59:09.354Z,13.84
2024-01-17T16:01:37.317Z,13.83
2024-01-17T16:04:06.294Z,13.84
2024-01-17T16:06:33.975Z,13.84
2024-01-17T16:09:01.621Z,13.84
2024-01-17T16:11:29.299Z,13.84
2024-01-17T16:13:57.443Z,13.84
2024-01-17T16:16:24.954Z,13.83
2024-01-17T16:18:52.586Z,13.83
2024-01-17T16:21:21.623Z,13.84
2024-01-17T16:23:49.896Z,13.83
2024-01-17T16:26:17.547Z,13.84
2024-01-17T16:28:47.076Z,13.84
2024-01-17T16:31:14.632Z,13.84
2024-01-17T16:33:42.208Z,13.84
2024-01-17T16:36:09.920Z,13.84
2024-01-17T16:38:38.885Z,13.83
2024-01-17T16:41:06.840Z,13.83
2024-01-17T16:43:34.725Z,13.83
2024-01-17T16:46:02.182Z,13.83
2024-01-17T16:48:30.047Z,13.84
2024-01-17T16:50:57.644Z,13.84
2024-01-17T16:53:25.448Z,13.84
2024-01-17T16:55:54.386Z,13.84
2024-01-17T16:58:21.914Z,13.83
2024-01-17T17:00:50.318Z,13.85
2024-01-17T17:03:20.802Z,13.85
2024-01-17T17:05:48.593Z,13.85
2024-01-17T17:08:18.693Z,13.85
2024-01-17T17:10:46.426Z,13.85
2024-01-17T17:13:15.652Z,13.85
2024-01-17T17:15:43.626Z,13.85
2024-01-17T17:18:15.884Z,13.86
2024-01-17T17:20:47.135Z,13.86
2024-01-17T17:23:15.412Z,13.86
2024-01-17T17:25:43.216Z,13.87
2024-01-17T17:28:10.829Z,13.88
2024-01-17T17:30:41.190Z,13.87
2024-01-17T17:33:09.102Z,13.88
2024-01-17T17:35:36.711Z,13.88
2024-01-17T17:38:05.663Z,13.88
2024-01-17T17:40:33.268Z,13.89
2024-01-17T17:43:00.770Z,13.89
2024-01-17T17:45:28.310Z,13.89
2024-01-17T17:47:58.324Z,13.89
2024-01-17T17:50:25.905Z,13.89
2024-01-17T17:52:53.437Z,13.91
2024-01-17T17:55:21.151Z,13.90
2024-01-17T17:57:48.628Z,13.90
2024-01-17T18:00:16.485Z,13.90
2024-01-17T18:02:44.058Z,13.90
2024-01-17T18:05:12.959Z,13.91
2024-01-17T18:07:40.558Z,13.91
2024-01-17T18:10:08.614Z,13.91
2024-01-17T18:12:36.696Z,13.90
2024-01-17T18:15:05.104Z,13.91
2024-01-17T18:17:32.751Z,13.91
2024-01-17T18:20:00.391Z,13.91
2024-01-17T18:22:29.393Z,13.90
2024-01-17T18:24:56.913Z,13.90
2024-01-17T18:27:24.441Z,13.91
2024-01-17T18:29:53.378Z,13.90
2024-01-17T18:32:22.960Z,13.90
2024-01-17T18:34:51.381Z,13.89
2024-01-17T18:37:19.290Z,13.91
2024-01-17T18:39:48.156Z,13.90
2024-01-17T18:42:15.666Z,13.90
2024-01-17T18:44:43.253Z,13.90
2024-01-17T18:47:10.779Z,13.91
2024-01-17T18:49:38.279Z,13.90
2024-01-17T18:52:06.116Z,13.89
2024-01-17T18:54:33.635Z,13.90
2024-01-17T18:57:03.008Z,13.88
2024-01-17T18:59:30.540Z,13.87
2024-01-17T19:01:58.141Z,13.89
2024-01-17T19:04:25.763Z,13.89
2024-01-17T19:06:53.326Z,13.88
2024-01-17T19:09:20.868Z,13.88
2024-01-17T19:11:48.751Z,13.88
2024-01-17T19:14:18.207Z,13.89
2024-01-17T19:16:45.940Z,13.88
2024-01-17T19:19:13.526Z,13.87
2024-01-17T19:21:41.661Z,13.87
2024-01-17T19:24:10.767Z,13.87
2024-01-17T19:26:38.352Z,13.87
2024-01-17T19:29:05.933Z,13.86
2024-01-17T19:31:34.784Z,13.87
2024-01-17T19:34:02.385Z,13.87
2024-01-17T19:36:34.301Z,13.87
2024-01-17T19:39:02.351Z,13.86
2024-01-17T19:41:29.855Z,13.88
2024-01-17T19:43:57.369Z,13.86
2024-01-17T19:46:24.888Z,13.87
2024-01-17T19:48:55.617Z,13.86
2024-01-17T19:51:23.281Z,13.86
2024-01-17T19:53:51.672Z,13.86
2024-01-17T19:56:19.220Z,13.86
2024-01-17T19:58:47.507Z,13.86
2024-01-17T20:01:15.072Z,13.87
2024-01-17T20:03:46.099Z,13.85
2024-01-17T20:06:15.145Z,13.86
2024-01-17T20:08:42.689Z,13.85
2024-01-17T20:11:10.194Z,13.86
2024-01-17T20:13:39.962Z,13.87
2024-01-17T20:16:07.643Z,13.86
2024-01-17T20:18:35.724Z,13.86
2024-01-17T20:21:03.295Z,13.86
2024-01-17T20:23:32.224Z,13.86
2024-01-17T20:25:59.728Z,13.85
2024-01-17T20:28:27.210Z,13.87
2024-01-17T20:30:54.695Z,13.85
2024-01-17T20:33:22.590Z,13.85
2024-01-17T20:35:50.170Z,13.85
2024-01-17T20:38:17.669Z,13.85
2024-01-17T20:40:46.976Z,13.85
2024-01-17T20:43:14.685Z,13.86
2024-01-17T20:45:42.176Z,13.85
2024-01-17T20:48:09.847Z,13.86
2024-01-17T20:50:37.399Z,13.86
2024-01-17T20:53:05.059Z,13.86
2024-01-17T20:55:32.554Z,13.87
2024-01-17T20:58:01.406Z,13.87
2024-01-17T21:00:28.965Z,13.87
2024-01-17T21:02:59.824Z,13.86
2024-01-17T21:05:28.454Z,13.88
2024-01-17T21:07:56.405Z,13.87
2024-01-17T21:10:23.927Z,13.88
2024-01-17T21:12:51.438Z,13.88
2024-01-17T21:15:20.285Z,13.87
2024-01-17T21:17:47.918Z,13.87
2024-01-17T21:20:15.871Z,13.87
2024-01-17T21:22:46.925Z,13.86
2024-01-17T21:25:15.269Z,13.86
2024-01-17T21:27:42.795Z,13.86
2024-01-17T21:30:11.891Z,13.86
2024-01-17T21:32:41.452Z,13.87
2024-01-17T21:35:09.292Z,13.86
2024-01-17T21:37:36.840Z,13.86
2024-01-17T21:40:07.628Z,13.87
2024-01-17T21:42:35.367Z,13.87
2024-01-17T21:45:03.279Z,13.86
2024-01-17T21:47:32.289Z,13.87
2024-01-17T21:50:01.489Z,13.87
2024-01-17T21:52:29.033Z,13.88
2024-01-17T21:54:56.734Z,13.88
2024-01-17T21:57:25.159Z,13.87
2024-01-17T21:59:53.127Z,13.86
2024-01-17T22:02:20.671Z,13.87
2024-01-17T22:04:48.242Z,13.88
2024-01-17T22:07:17.264Z,13.86
2024-01-17T22:09:44.901Z,13.88
2024-01-17T22:12:12.508Z,13.87
2024-01-17T22:14:39.977Z,13.86
2024-01-17T22:17:08.582Z,13.87
2024-01-17T22:19:36.117Z,13.87
2024-01-17T22:22:03.876Z,13.88
2024-01-17T22:24:33.920Z,13.87
2024-01-17T22:27:01.554Z,13.87
2024-01-17T22:29:30.636Z,13.87
2024-01-17T22:31:58.193Z,13.86
2024-01-17T22:34:27.774Z,13.87
2024-01-17T22:36:55.487Z,13.88
2024-01-17T22:39:23.227Z,13.87
2024-01-17T22:41:52.836Z,13.87
2024-01-17T22:44:22.535Z,13.89
2024-01-17T22:46:50.104Z,13.91
2024-01-17T22:49:17.750Z,13.95
2024-01-17T22:51:51.646Z,13.96
2024-01-17T22:54:19.120Z,13.96
2024-01-17T22:56:46.622Z,13.93
2024-01-17T22:59:15.449Z,13.92
2024-01-17T23:01:42.918Z,13.90
2024-01-17T23:04:10.704Z,13.88
2024-01-17T23:06:38.426Z,13.87
2024-01-17T23:09:06.126Z,13.86
2024-01-17T23:11:34.510Z,13.85
2024-01-17T23:14:02.080Z,13.84
2024-01-17T23:16:30.924Z,13.84
2024-01-17T23:18:58.585Z,13.82
2024-01-17T23:21:26.248Z,13.83
2024-01-17T23:23:53.946Z,13.82
2024-01-17T23:26:21.477Z,13.82
2024-01-17T23:28:49.055Z,13.83
2024-01-17T23:31:17.272Z,13.81
2024-01-17T23:33:46.213Z,13.81
2024-01-17T23:36:14.324Z,13.81
2024-01-17T23:38:41.859Z,13.81
2024-01-17T23:41:09.409Z,13.81
2024-01-17T23:43:36.923Z,13.81
2024-01-17T23:46:04.430Z,13.81
2024-01-17T23:48:31.997Z,13.80
2024-01-17T23:51:00.957Z,13.80
2024-01-17T23:53:28.483Z,13.80
2024-01-17T23:55:55.963Z,13.80
2024-01-17T23:58:23.512Z,13.79
